createdAt,value
2022-08-30T00:02:23.220Z,11.35
2022-08-30T00:07:22.360Z,10.40
2022-08-30T00:09:50.070Z,9.27
2022-08-30T00:12:17.620Z,10.10
2022-08-30T00:14:44.939Z,11.07
2022-08-30T00:17:12.682Z,9.68
2022-08-30T00:19:40.083Z,10.70
2022-08-30T00:22:07.377Z,9.65
2022-08-30T00:24:35.010Z,11.93
2022-08-30T00:27:03.384Z,10.23
2022-08-30T00:29:31.246Z,9.27
2022-08-30T00:31:58.791Z,12.25
2022-08-30T00:34:26.402Z,10.45
2022-08-30T00:36:53.744Z,9.73
2022-08-30T00:39:21.892Z,9.80
2022-08-30T00:41:49.638Z,8.10
2022-08-30T00:44:17.298Z,10.63
2022-08-30T00:46:45.048Z,9.75
2022-08-30T00:52:19.295Z,11.05
2022-08-30T00:54:49.170Z,12.75
2022-08-30T00:57:17.144Z,9.68
2022-08-30T00:59:49.885Z,11.75
2022-08-30T01:02:22.497Z,12.00
2022-08-30T01:04:56.187Z,10.77
2022-08-30T01:07:24.784Z,10.00
2022-08-30T01:09:52.458Z,10.30
2022-08-30T01:12:20.238Z,10.85
2022-08-30T01:14:48.096Z,12.18
2022-08-30T01:17:18.086Z,13.70
2022-08-30T01:20:01.342Z,10.10
2022-08-30T01:22:50.669Z,12.43
2022-08-30T01:28:16.027Z,9.23
2022-08-30T01:30:44.091Z,11.93
2022-08-30T01:33:12.481Z,13.27
2022-08-30T01:35:56.608Z,12.48
2022-08-30T01:41:18.394Z,7.55
2022-08-30T01:43:46.519Z,11.93
2022-08-30T01:46:16.811Z,10.63
2022-08-30T01:48:50.340Z,9.93
2022-08-30T01:51:24.354Z,9.88
2022-08-30T01:53:51.964Z,12.88
2022-08-30T01:56:38.562Z,9.90
2022-08-30T01:59:06.625Z,9.65
2022-08-30T02:01:37.239Z,9.90
2022-08-30T02:04:05.434Z,8.57
2022-08-30T02:06:34.611Z,9.70
2022-08-30T02:11:29.687Z,8.38
2022-08-30T02:13:57.876Z,13.40
2022-08-30T02:16:26.421Z,10.95
2022-08-30T02:18:57.230Z,11.82
2022-08-30T02:21:28.079Z,10.57
2022-08-30T02:23:56.480Z,10.57
2022-08-30T02:26:26.059Z,10.38
2022-08-30T02:28:53.960Z,10.10
2022-08-30T02:31:23.629Z,11.70
2022-08-30T02:33:53.042Z,8.95
2022-08-30T02:36:22.446Z,11.63
2022-08-30T02:41:19.480Z,13.85
2022-08-30T02:43:47.731Z,10.68
2022-08-30T02:46:15.511Z,9.52
2022-08-30T02:48:43.206Z,9.48
2022-08-30T02:51:13.568Z,9.30
2022-08-30T02:53:43.951Z,10.52
2022-08-30T02:56:14.178Z,9.85
2022-08-30T02:58:43.585Z,9.68
2022-08-30T03:01:15.209Z,9.95
2022-08-30T03:03:50.387Z,12.50
2022-08-30T03:06:20.209Z,10.52
2022-08-30T03:08:48.309Z,9.20
2022-08-30T03:11:15.874Z,11.45
2022-08-30T03:13:43.221Z,9.85
2022-08-30T03:16:10.997Z,10.35
2022-08-30T03:18:38.574Z,11.60
2022-08-30T03:21:13.220Z,10.90
2022-08-30T03:23:42.422Z,11.23
2022-08-30T03:26:13.572Z,11.23
2022-08-30T03:28:44.593Z,11.68
2022-08-30T03:31:12.802Z,10.85
2022-08-30T03:33:41.284Z,12.37
2022-08-30T03:36:10.759Z,9.05
2022-08-30T03:38:38.630Z,11.23
2022-08-30T03:41:06.496Z,12.80
2022-08-30T03:43:38.369Z,12.82
2022-08-30T03:46:06.454Z,13.90
2022-08-30T03:48:56.042Z,11.73
2022-08-30T03:51:24.768Z,11.45
2022-08-30T03:56:38.271Z,12.27
2022-08-30T03:59:05.906Z,12.05
2022-08-30T04:01:34.115Z,11.65
2022-08-30T04:04:01.857Z,9.63
2022-08-30T04:06:31.258Z,9.90
2022-08-30T04:08:59.864Z,10.13
2022-08-30T04:11:27.218Z,10.90
2022-08-30T04:13:56.257Z,9.40
2022-08-30T04:16:26.791Z,13.98
2022-08-30T04:21:21.439Z,9.25
2022-08-30T04:23:49.109Z,10.02
2022-08-30T04:26:16.559Z,11.48
2022-08-30T04:28:44.210Z,9.75
2022-08-30T04:31:17.677Z,10.30
2022-08-30T04:33:45.662Z,10.20
2022-08-30T04:36:15.867Z,11.35
2022-08-30T04:38:43.605Z,9.73
2022-08-30T04:41:17.857Z,12.57
2022-08-30T04:43:47.750Z,9.50
2022-08-30T04:46:15.331Z,10.98
2022-08-30T04:48:43.316Z,11.18
2022-08-30T04:51:14.589Z,12.30
2022-08-30T04:53:44.117Z,12.13
2022-08-30T04:56:17.788Z,14.02
2022-08-30T04:58:48.800Z,11.00
2022-08-30T05:01:29.012Z,9.70
2022-08-30T05:03:57.550Z,10.27
2022-08-30T05:06:27.866Z,10.63
2022-08-30T05:09:01.077Z,11.68
2022-08-30T05:11:29.204Z,10.75
2022-08-30T05:14:00.787Z,10.95
2022-08-30T05:16:28.699Z,12.45
2022-08-30T05:19:02.172Z,12.63
2022-08-30T05:21:30.168Z,11.57
2022-08-30T05:24:07.336Z,12.60
2022-08-30T05:26:38.015Z,10.52
2022-08-30T05:29:07.995Z,12.05
2022-08-30T05:31:37.172Z,12.60
2022-08-30T05:34:05.174Z,15.10
2022-08-30T05:36:40.713Z,20.02
2022-08-30T05:39:09.671Z,11.93
2022-08-30T05:41:38.723Z,10.70
2022-08-30T05:44:10.576Z,9.45
2022-08-30T05:46:39.531Z,11.65
2022-08-30T05:49:08.479Z,14.20
2022-08-30T05:51:43.020Z,11.23
2022-08-30T05:54:14.013Z,12.68
2022-08-30T05:59:30.194Z,9.32
2022-08-30T06:01:58.790Z,11.00
2022-08-30T06:04:27.100Z,12.60
2022-08-30T06:07:03.354Z,13.88
2022-08-30T06:09:31.442Z,14.45
2022-08-30T06:11:59.190Z,11.98
2022-08-30T06:14:26.918Z,12.38
2022-08-30T06:16:57.523Z,13.00
2022-08-30T06:19:24.821Z,11.40
2022-08-30T06:21:57.923Z,13.10
2022-08-30T06:24:41.051Z,13.13
2022-08-30T06:27:16.635Z,15.07
2022-08-30T06:29:48.007Z,12.52
2022-08-30T06:32:16.414Z,14.75
2022-08-30T06:34:44.057Z,15.13
2022-08-30T06:37:11.646Z,15.00
2022-08-30T06:39:39.032Z,13.00
2022-08-30T06:42:07.410Z,17.83
2022-08-30T06:44:36.363Z,17.88
2022-08-30T06:47:04.488Z,15.48
2022-08-30T06:49:31.839Z,12.70
2022-08-30T06:51:59.210Z,18.58
2022-08-30T06:54:27.118Z,11.70
2022-08-30T06:56:58.708Z,15.52
2022-08-30T06:59:27.733Z,18.92
2022-08-30T07:01:56.315Z,16.67
2022-08-30T07:04:24.964Z,14.98
2022-08-30T07:06:52.452Z,11.37
2022-08-30T07:09:22.992Z,18.58
2022-08-30T07:11:52.194Z,12.57
2022-08-30T07:14:20.692Z,15.77
2022-08-30T07:16:50.867Z,18.50
2022-08-30T07:19:21.513Z,14.77
2022-08-30T07:21:49.961Z,16.40
2022-08-30T07:24:18.607Z,15.02
2022-08-30T07:26:52.310Z,17.77
2022-08-30T07:29:21.539Z,14.10
2022-08-30T07:31:49.425Z,15.77
2022-08-30T07:34:20.429Z,14.32
2022-08-30T07:36:50.047Z,16.38
2022-08-30T07:39:27.254Z,15.70
2022-08-30T07:41:59.206Z,14.13
2022-08-30T07:44:27.168Z,15.45
2022-08-30T07:46:54.782Z,14.02
2022-08-30T07:49:24.776Z,14.85
2022-08-30T07:52:01.750Z,16.02
2022-08-30T07:54:31.197Z,11.73
2022-08-30T07:57:01.855Z,15.23
2022-08-30T07:59:35.678Z,13.93
2022-08-30T08:02:04.335Z,14.35
2022-08-30T08:04:32.026Z,14.68
2022-08-30T08:06:59.507Z,13.73
2022-08-30T08:09:27.779Z,14.70
2022-08-30T08:11:55.423Z,11.95
2022-08-30T08:14:23.859Z,12.15
2022-08-30T08:16:51.533Z,11.60
2022-08-30T08:19:19.705Z,11.77
2022-08-30T08:21:46.939Z,10.65
2022-08-30T08:24:16.982Z,11.85
2022-08-30T08:26:45.393Z,11.80
2022-08-30T08:29:22.207Z,12.10
2022-08-30T08:31:49.661Z,10.52
2022-08-30T08:34:19.294Z,11.93
2022-08-30T08:36:48.972Z,11.98
2022-08-30T08:39:17.714Z,12.82
2022-08-30T08:42:22.992Z,12.57
2022-08-30T08:45:23.144Z,12.40
2022-08-30T08:48:05.580Z,11.23
2022-08-30T08:50:32.910Z,10.55
2022-08-30T08:53:50.698Z,13.07
2022-08-30T08:56:22.286Z,11.10
2022-08-30T08:58:53.934Z,11.15
2022-08-30T09:01:27.696Z,9.93
2022-08-30T09:04:31.324Z,12.10
2022-08-30T09:07:17.874Z,8.63
2022-08-30T09:09:48.064Z,7.18
2022-08-30T09:12:18.083Z,9.48
2022-08-30T09:14:55.706Z,9.25
2022-08-30T09:17:23.719Z,7.00
2022-08-30T09:19:54.203Z,11.00
2022-08-30T09:22:38.857Z,10.48
2022-08-30T09:25:11.121Z,8.27
2022-08-30T09:27:48.902Z,9.63
2022-08-30T09:30:28.005Z,9.65
2022-08-30T09:35:33.765Z,7.38
2022-08-30T09:38:13.134Z,10.80
2022-08-30T09:40:59.041Z,8.68
2022-08-30T09:43:37.707Z,11.05
2022-08-30T09:46:16.222Z,8.60
2022-08-30T09:48:46.074Z,8.68
2022-08-30T09:51:44.123Z,12.98
2022-08-30T09:54:40.171Z,10.05
2022-08-30T09:57:52.622Z,11.20
2022-08-30T10:00:26.256Z,9.75
2022-08-30T10:02:57.605Z,12.00
2022-08-30T10:06:24.858Z,8.45
2022-08-30T10:09:25.052Z,9.48
2022-08-30T10:12:25.534Z,8.50
2022-08-30T10:15:21.269Z,8.90
2022-08-30T10:18:21.011Z,10.20
2022-08-30T10:21:05.049Z,10.57
2022-08-30T10:24:20.949Z,9.35
2022-08-30T10:27:05.276Z,10.45
2022-08-30T10:29:47.828Z,6.22
2022-08-30T10:32:33.753Z,9.90
2022-08-30T10:35:17.488Z,9.45
2022-08-30T10:37:57.174Z,11.18
2022-08-30T10:44:10.458Z,10.40
2022-08-30T10:47:02.674Z,9.80
2022-08-30T10:49:40.551Z,7.78
2022-08-30T10:52:14.597Z,8.07
2022-08-30T10:55:26.833Z,9.40
2022-08-30T10:57:54.484Z,10.48
2022-08-30T11:00:34.913Z,7.95
2022-08-30T11:03:19.902Z,7.97
2022-08-30T11:06:15.566Z,9.07
2022-08-30T11:09:13.110Z,8.98
2022-08-30T11:12:26.438Z,8.20
2022-08-30T11:14:54.593Z,7.50
2022-08-30T11:17:30.863Z,8.85
2022-08-30T11:20:02.612Z,6.80
2022-08-30T11:22:38.800Z,6.85
2022-08-30T11:25:18.349Z,8.50
2022-08-30T11:27:53.806Z,8.45
2022-08-30T11:30:26.664Z,8.18
2022-08-30T11:32:59.590Z,7.93
2022-08-30T11:35:52.527Z,9.13
2022-08-30T11:38:40.051Z,13.02
2022-08-30T11:41:47.659Z,5.97
2022-08-30T11:44:32.226Z,9.68
2022-08-30T11:47:24.385Z,7.45
2022-08-30T11:50:14.478Z,8.80
2022-08-30T11:53:07.763Z,7.22
2022-08-30T11:55:47.163Z,7.80
2022-08-30T11:58:45.160Z,7.53
2022-08-30T12:01:42.094Z,6.13
2022-08-30T12:04:46.948Z,8.80
2022-08-30T12:07:59.320Z,6.05
2022-08-30T12:10:45.761Z,6.05
2022-08-30T12:13:36.224Z,6.32
2022-08-30T12:16:15.171Z,6.38
2022-08-30T12:21:59.722Z,6.68
2022-08-30T12:24:42.031Z,8.32
2022-08-30T12:27:33.367Z,6.22
2022-08-30T12:30:06.755Z,7.57
2022-08-30T12:32:47.539Z,6.82
2022-08-30T12:35:28.860Z,7.28
2022-08-30T12:38:08.812Z,6.60
2022-08-30T12:41:02.196Z,18.02
2022-08-30T12:43:48.999Z,6.30
2022-08-30T12:46:20.786Z,9.38
2022-08-30T12:48:56.146Z,7.95
2022-08-30T12:51:30.417Z,8.73
2022-08-30T12:54:26.139Z,7.22
2022-08-30T12:57:25.619Z,6.47
2022-08-30T12:59:59.806Z,6.03
2022-08-30T13:02:42.390Z,7.47
2022-08-30T13:05:44.554Z,9.02
2022-08-30T13:08:24.112Z,6.40
2022-08-30T13:10:58.807Z,7.78
2022-08-30T13:13:55.265Z,9.02
2022-08-30T13:16:31.644Z,8.73
2022-08-30T13:19:31.195Z,8.50
2022-08-30T13:21:59.677Z,7.15
2022-08-30T13:24:27.989Z,9.60
2022-08-30T13:27:00.106Z,7.00
2022-08-30T13:29:29.398Z,7.93
2022-08-30T13:34:25.305Z,6.40
2022-08-30T13:36:58.434Z,8.30
2022-08-30T13:39:26.707Z,7.53
2022-08-30T13:41:55.696Z,8.38
2022-08-30T13:44:43.527Z,5.75
2022-08-30T13:50:01.762Z,11.18
2022-08-30T13:52:29.545Z,10.32
2022-08-30T13:54:58.455Z,9.95
2022-08-30T14:00:21.972Z,7.30
2022-08-30T14:02:54.781Z,5.53
2022-08-30T14:08:49.930Z,7.35
2022-08-30T14:11:22.394Z,9.20
2022-08-30T14:16:57.306Z,9.70
2022-08-30T14:22:09.346Z,8.95
2022-08-30T14:24:36.690Z,6.95
2022-08-30T14:27:03.820Z,6.70
2022-08-30T14:29:31.665Z,7.05
2022-08-30T14:32:00.755Z,8.35
2022-08-30T14:34:30.898Z,6.65
2022-08-30T14:37:00.293Z,8.23
2022-08-30T14:39:27.701Z,7.78
2022-08-30T14:41:56.330Z,5.63
2022-08-30T14:44:27.480Z,8.90
2022-08-30T14:46:56.363Z,6.32
2022-08-30T14:51:54.266Z,6.18
2022-08-30T14:54:26.293Z,6.28
2022-08-30T14:57:12.380Z,5.05
2022-08-30T14:59:39.620Z,6.15
2022-08-30T15:02:11.751Z,6.38
2022-08-30T15:04:41.858Z,7.47
2022-08-30T15:07:13.565Z,5.60
2022-08-30T15:09:43.993Z,4.70
2022-08-30T15:12:14.708Z,6.20
2022-08-30T15:14:43.156Z,8.05
2022-08-30T15:17:13.119Z,5.18
2022-08-30T15:19:43.136Z,6.05
2022-08-30T15:22:10.622Z,8.15
2022-08-30T15:24:37.922Z,5.28
2022-08-30T15:27:06.109Z,6.45
2022-08-30T15:29:33.802Z,4.55
2022-08-30T15:32:03.388Z,5.97
2022-08-30T15:34:33.046Z,5.93
2022-08-30T15:37:00.806Z,6.65
2022-08-30T15:39:29.528Z,7.40
2022-08-30T15:42:00.731Z,7.97
2022-08-30T15:44:32.177Z,7.00
2022-08-30T15:47:01.885Z,5.78
2022-08-30T15:49:29.193Z,5.63
2022-08-30T15:52:01.889Z,7.47
2022-08-30T15:54:29.349Z,6.32
2022-08-30T15:56:59.827Z,8.52
2022-08-30T15:59:31.669Z,8.15
2022-08-30T16:02:00.013Z,6.22
2022-08-30T16:04:27.228Z,7.30
2022-08-30T16:06:55.024Z,7.05
2022-08-30T16:09:24.051Z,5.65
2022-08-30T16:11:51.778Z,7.75
2022-08-30T16:14:19.695Z,9.38
2022-08-30T16:16:47.194Z,7.05
2022-08-30T16:19:14.575Z,6.13
2022-08-30T16:21:43.315Z,6.65
2022-08-30T16:24:13.481Z,8.10
2022-08-30T16:26:43.121Z,6.45
2022-08-30T16:31:42.155Z,6.63
2022-08-30T16:34:10.272Z,5.63
2022-08-30T16:36:39.547Z,8.75
2022-08-30T16:39:09.012Z,5.72
2022-08-30T16:41:37.690Z,7.13
2022-08-30T16:44:06.695Z,9.00
2022-08-30T16:46:36.576Z,5.53
2022-08-30T16:49:06.024Z,5.20
2022-08-30T16:51:37.431Z,6.53
2022-08-30T16:54:08.225Z,7.18
2022-08-30T16:56:38.115Z,6.60
2022-08-30T16:59:11.226Z,5.78
2022-08-30T17:01:39.563Z,7.53
2022-08-30T17:04:08.949Z,9.50
2022-08-30T17:06:36.682Z,6.15
2022-08-30T17:09:06.902Z,7.55
2022-08-30T17:11:36.539Z,6.10
2022-08-30T17:14:07.201Z,7.82
2022-08-30T17:19:27.069Z,6.83
2022-08-30T17:21:56.445Z,7.40
2022-08-30T17:24:25.366Z,8.15
2022-08-30T17:26:54.517Z,7.22
2022-08-30T17:29:21.848Z,8.10
2022-08-30T17:31:51.119Z,7.90
2022-08-30T17:34:21.969Z,6.28
2022-08-30T17:36:54.879Z,6.28
2022-08-30T17:39:25.580Z,7.40
2022-08-30T17:41:53.925Z,5.95
2022-08-30T17:44:25.882Z,8.37
2022-08-30T17:46:54.520Z,10.80
2022-08-30T17:49:22.526Z,8.23
2022-08-30T17:54:40.263Z,6.97
2022-08-30T17:57:11.067Z,9.02
2022-08-30T17:59:39.496Z,9.10
2022-08-30T18:02:11.263Z,7.30
2022-08-30T18:04:41.675Z,7.40
2022-08-30T18:07:11.955Z,7.50
2022-08-30T18:09:40.638Z,7.10
2022-08-30T18:12:10.006Z,7.60
2022-08-30T18:14:38.659Z,6.30
2022-08-30T18:17:11.724Z,8.55
2022-08-30T18:19:46.318Z,6.90
2022-08-30T18:22:15.485Z,8.85
2022-08-30T18:24:43.635Z,7.80
2022-08-30T18:27:11.907Z,6.87
2022-08-30T18:29:44.418Z,8.57
2022-08-30T18:32:12.274Z,6.30
2022-08-30T18:34:40.490Z,10.88
2022-08-30T18:37:12.585Z,8.10
2022-08-30T18:39:42.364Z,8.30
2022-08-30T18:42:10.259Z,6.30
2022-08-30T18:44:37.672Z,11.40
2022-08-30T18:47:05.882Z,8.57
2022-08-30T18:49:37.183Z,10.35
2022-08-30T18:52:12.823Z,5.97
2022-08-30T18:54:52.520Z,7.70
2022-08-30T18:57:21.910Z,8.68
2022-08-30T18:59:50.384Z,6.72
2022-08-30T19:02:20.452Z,7.72
2022-08-30T19:07:37.670Z,8.30
2022-08-30T19:10:07.392Z,6.95
2022-08-30T19:12:40.571Z,8.15
2022-08-30T19:15:11.697Z,9.45
2022-08-30T19:17:44.214Z,7.55
2022-08-30T19:20:23.716Z,6.40
2022-08-30T19:23:19.599Z,7.70
2022-08-30T19:25:40.937Z,5.07
2022-08-30T19:28:11.487Z,11.68
2022-08-30T19:30:39.706Z,8.33
2022-08-30T19:33:21.321Z,7.40
2022-08-30T19:35:51.670Z,8.88
2022-08-30T19:38:25.716Z,6.93
2022-08-30T19:40:59.654Z,7.55
2022-08-30T19:43:28.297Z,8.07
2022-08-30T19:46:00.195Z,7.97
2022-08-30T19:48:32.923Z,8.23
2022-08-30T19:51:11.233Z,9.25
2022-08-30T19:53:43.996Z,6.97
2022-08-30T19:56:13.085Z,9.40
2022-08-30T19:58:43.159Z,10.80
2022-08-30T20:01:33.186Z,9.27
2022-08-30T20:04:04.758Z,9.00
2022-08-30T20:06:33.154Z,13.10
2022-08-30T20:09:01.169Z,9.88
2022-08-30T20:11:29.327Z,9.77
2022-08-30T20:13:57.765Z,9.20
2022-08-30T20:16:37.080Z,13.50
2022-08-30T20:19:08.462Z,8.57
2022-08-30T20:21:37.402Z,9.40
2022-08-30T20:24:09.678Z,13.10
2022-08-30T20:24:24.977Z,6.57
2022-08-30T20:24:26.175Z,10.15
2022-08-30T20:26:38.542Z,8.80
2022-08-30T20:29:07.482Z,8.60
2022-08-30T20:31:36.394Z,11.00
2022-08-30T20:34:05.234Z,9.02
2022-08-30T20:36:34.041Z,10.40
2022-08-30T20:39:09.748Z,10.07
2022-08-30T20:41:38.172Z,10.07
2022-08-30T20:44:09.186Z,8.40
2022-08-30T20:46:45.543Z,9.85
2022-08-30T20:49:14.654Z,14.23
2022-08-30T20:51:43.536Z,11.30
2022-08-30T20:54:11.788Z,8.40
2022-08-30T20:56:41.235Z,7.55
2022-08-30T20:59:09.689Z,8.57
2022-08-30T21:01:40.819Z,7.68
2022-08-30T21:04:08.523Z,7.82
2022-08-30T21:06:37.916Z,10.60
2022-08-30T21:11:39.668Z,10.13
2022-08-30T21:14:12.778Z,11.38
2022-08-30T21:16:40.632Z,7.55
2022-08-30T21:19:08.314Z,8.13
2022-08-30T21:21:36.078Z,10.80
2022-08-30T21:24:10.548Z,8.70
2022-08-30T21:26:40.609Z,10.75
2022-08-30T21:29:09.592Z,7.80
2022-08-30T21:31:41.056Z,10.32
2022-08-30T21:34:09.028Z,8.40
2022-08-30T21:37:03.553Z,11.65
2022-08-30T21:39:31.655Z,8.43
2022-08-30T21:41:59.991Z,8.85
2022-08-30T21:44:27.530Z,10.90
2022-08-30T21:46:55.379Z,8.43
2022-08-30T21:49:24.709Z,8.77
2022-08-30T21:56:52.742Z,8.17
2022-08-30T21:59:21.772Z,8.10
2022-08-30T22:01:50.334Z,7.10
2022-08-30T22:04:36.601Z,5.28
2022-08-30T22:07:07.210Z,6.82
2022-08-30T22:09:35.354Z,7.80
2022-08-30T22:12:06.834Z,6.78
2022-08-30T22:14:38.125Z,4.85
2022-08-30T22:17:06.246Z,6.30
2022-08-30T22:19:33.668Z,8.63
2022-08-30T22:22:01.930Z,8.45
2022-08-30T22:24:32.289Z,7.70
2022-08-30T22:27:02.783Z,6.47
2022-08-30T22:29:31.559Z,5.93
2022-08-30T22:31:59.972Z,6.88
2022-08-30T22:34:27.873Z,5.00
2022-08-30T22:36:55.359Z,4.60
2022-08-30T22:39:23.218Z,6.80
2022-08-30T22:41:51.888Z,8.27
2022-08-30T22:44:23.612Z,9.77
2022-08-30T22:46:50.907Z,4.28
2022-08-30T22:49:18.200Z,6.00
2022-08-30T22:51:45.659Z,6.72
2022-08-30T22:54:12.955Z,8.65
2022-08-30T22:56:41.698Z,4.68
2022-08-30T22:59:09.617Z,9.20
2022-08-30T23:01:43.466Z,5.00
2022-08-30T23:04:11.846Z,5.95
2022-08-30T23:06:40.787Z,7.18
2022-08-30T23:09:08.494Z,7.30
2022-08-30T23:11:38.949Z,6.07
2022-08-30T23:14:06.851Z,5.00
2022-08-30T23:16:35.012Z,4.47
2022-08-30T23:19:04.648Z,7.35
2022-08-30T23:21:32.121Z,6.93
2022-08-30T23:24:18.166Z,6.70
2022-08-30T23:27:06.313Z,6.68
2022-08-30T23:29:53.593Z,6.63
2022-08-30T23:32:40.451Z,7.80
2022-08-30T23:35:31.872Z,8.82
2022-08-30T23:38:22.757Z,7.15
2022-08-30T23:41:09.101Z,8.38
2022-08-30T23:43:55.286Z,6.45
2022-08-30T23:46:42.759Z,5.97
2022-08-30T23:49:29.635Z,7.93
2022-08-30T23:52:15.670Z,7.60
2022-08-30T23:55:02.648Z,6.13
2022-08-30T23:57:49.040Z,4.65
